sensor_id;sensor_type;location;lat;lon;timestamp;temperature;humidity
20732;DHT22;10527;52.124;5.196;2022-12-07T00:01:45;5.50;99.90
20732;DHT22;10527;52.124;5.196;2022-12-07T00:04:15;5.40;99.90
20732;DHT22;10527;52.124;5.196;2022-12-07T00:06:50;5.40;99.90
20732;DHT22;10527;52.124;5.196;2022-12-07T00:09:19;5.40;99.90
20732;DHT22;10527;52.124;5.196;2022-12-07T00:11:49;5.40;99.90
20732;DHT22;10527;52.124;5.196;2022-12-07T00:14:18;5.30;99.90
20732;DHT22;10527;52.124;5.196;2022-12-07T00:16:45;5.30;99.90
20732;DHT22;10527;52.124;5.196;2022-12-07T00:19:16;5.20;99.90
20732;DHT22;10527;52.124;5.196;2022-12-07T00:21:42;5.30;99.90
20732;DHT22;10527;52.124;5.196;2022-12-07T00:24:10;5.20;99.90
20732;DHT22;10527;52.124;5.196;2022-12-07T00:26:39;5.20;99.90
20732;DHT22;10527;52.124;5.196;2022-12-07T00:29:13;5.20;99.90
20732;DHT22;10527;52.124;5.196;2022-12-07T00:31:44;5.20;99.90
20732;DHT22;10527;52.124;5.196;2022-12-07T00:34:14;5.20;99.90
20732;DHT22;10527;52.124;5.196;2022-12-07T00:37:02;5.20;99.90
20732;DHT22;10527;52.124;5.196;2022-12-07T00:39:28;5.20;99.90
20732;DHT22;10527;52.124;5.196;2022-12-07T00:41:55;5.30;99.90
20732;DHT22;10527;52.124;5.196;2022-12-07T00:44:22;5.30;99.90
20732;DHT22;10527;52.124;5.196;2022-12-07T00:46:49;5.30;99.90
20732;DHT22;10527;52.124;5.196;2022-12-07T00:49:16;5.30;99.90
20732;DHT22;10527;52.124;5.196;2022-12-07T00:51:44;5.30;99.90
20732;DHT22;10527;52.124;5.196;2022-12-07T00:54:10;5.20;99.90
20732;DHT22;10527;52.124;5.196;2022-12-07T00:56:37;5.10;99.90
20732;DHT22;10527;52.124;5.196;2022-12-07T00:59:04;5.10;99.90
20732;DHT22;10527;52.124;5.196;2022-12-07T01:01:33;5.00;99.90
20732;DHT22;10527;52.124;5.196;2022-12-07T01:04:02;5.00;99.90
20732;DHT22;10527;52.124;5.196;2022-12-07T01:06:30;5.00;99.90
20732;DHT22;10527;52.124;5.196;2022-12-07T01:08:58;4.90;99.90
20732;DHT22;10527;52.124;5.196;2022-12-07T01:11:28;5.00;99.90
20732;DHT22;10527;52.124;5.196;2022-12-07T01:13:57;5.00;99.90
20732;DHT22;10527;52.124;5.196;2022-12-07T01:16:27;4.90;99.90
20732;DHT22;10527;52.124;5.196;2022-12-07T01:18:56;4.90;99.90
20732;DHT22;10527;52.124;5.196;2022-12-07T01:21:26;5.00;99.90
20732;DHT22;10527;52.124;5.196;2022-12-07T01:23:57;4.90;99.90
20732;DHT22;10527;52.124;5.196;2022-12-07T01:26:24;4.90;99.90
20732;DHT22;10527;52.124;5.196;2022-12-07T01:28:53;5.00;99.90
20732;DHT22;10527;52.124;5.196;2022-12-07T01:31:23;5.00;99.90
20732;DHT22;10527;52.124;5.196;2022-12-07T01:33:54;5.00;99.90
20732;DHT22;10527;52.124;5.196;2022-12-07T01:36:29;5.00;99.90
20732;DHT22;10527;52.124;5.196;2022-12-07T01:39:04;5.00;99.90
20732;DHT22;10527;52.124;5.196;2022-12-07T01:41:35;5.00;99.90
20732;DHT22;10527;52.124;5.196;2022-12-07T01:44:24;5.00;99.90
20732;DHT22;10527;52.124;5.196;2022-12-07T01:47:03;5.00;99.90
20732;DHT22;10527;52.124;5.196;2022-12-07T01:49:42;4.90;99.90
20732;DHT22;10527;52.124;5.196;2022-12-07T01:52:32;4.90;99.90
20732;DHT22;10527;52.124;5.196;2022-12-07T01:55:21;4.90;99.90
20732;DHT22;10527;52.124;5.196;2022-12-07T01:57:49;4.90;99.90
20732;DHT22;10527;52.124;5.196;2022-12-07T02:00:19;4.80;99.90
20732;DHT22;10527;52.124;5.196;2022-12-07T02:03:02;4.80;99.90
20732;DHT22;10527;52.124;5.196;2022-12-07T02:05:30;4.80;99.90
20732;DHT22;10527;52.124;5.196;2022-12-07T02:07:59;4.80;99.90
20732;DHT22;10527;52.124;5.196;2022-12-07T02:10:29;4.80;99.90
20732;DHT22;10527;52.124;5.196;2022-12-07T02:13:03;4.70;99.90
20732;DHT22;10527;52.124;5.196;2022-12-07T02:22:07;4.70;99.90
20732;DHT22;10527;52.124;5.196;2022-12-07T02:27:50;4.60;99.90
20732;DHT22;10527;52.124;5.196;2022-12-07T02:30:25;4.70;99.90
20732;DHT22;10527;52.124;5.196;2022-12-07T02:35:48;4.70;99.90
20732;DHT22;10527;52.124;5.196;2022-12-07T02:38:35;4.70;99.90
20732;DHT22;10527;52.124;5.196;2022-12-07T02:41:43;4.80;99.90
20732;DHT22;10527;52.124;5.196;2022-12-07T02:44:20;4.80;99.90
20732;DHT22;10527;52.124;5.196;2022-12-07T02:46:57;4.90;99.90
20732;DHT22;10527;52.124;5.196;2022-12-07T02:49:28;4.90;99.90
20732;DHT22;10527;52.124;5.196;2022-12-07T02:52:03;4.90;99.90
20732;DHT22;10527;52.124;5.196;2022-12-07T02:54:30;4.90;99.90
20732;DHT22;10527;52.124;5.196;2022-12-07T02:57:22;4.90;99.90
20732;DHT22;10527;52.124;5.196;2022-12-07T03:00:13;4.90;99.90
20732;DHT22;10527;52.124;5.196;2022-12-07T03:03:00;4.90;99.90
20732;DHT22;10527;52.124;5.196;2022-12-07T03:09:07;4.80;99.90
20732;DHT22;10527;52.124;5.196;2022-12-07T03:12:00;4.90;99.90
20732;DHT22;10527;52.124;5.196;2022-12-07T03:14:41;4.90;99.90
20732;DHT22;10527;52.124;5.196;2022-12-07T03:17:18;4.90;99.90
20732;DHT22;10527;52.124;5.196;2022-12-07T03:19:50;5.00;99.90
20732;DHT22;10527;52.124;5.196;2022-12-07T03:22:23;5.00;99.90
20732;DHT22;10527;52.124;5.196;2022-12-07T03:24:57;5.00;99.90
20732;DHT22;10527;52.124;5.196;2022-12-07T03:27:33;4.90;99.90
20732;DHT22;10527;52.124;5.196;2022-12-07T03:30:24;5.00;99.90
20732;DHT22;10527;52.124;5.196;2022-12-07T03:33:13;5.00;99.90
20732;DHT22;10527;52.124;5.196;2022-12-07T03:35:53;5.00;99.90
20732;DHT22;10527;52.124;5.196;2022-12-07T03:38:35;4.90;99.90
20732;DHT22;10527;52.124;5.196;2022-12-07T03:41:25;4.90;99.90
20732;DHT22;10527;52.124;5.196;2022-12-07T03:43:56;4.90;99.90
20732;DHT22;10527;52.124;5.196;2022-12-07T03:46:41;4.90;99.90
20732;DHT22;10527;52.124;5.196;2022-12-07T03:49:18;4.90;99.90
20732;DHT22;10527;52.124;5.196;2022-12-07T03:52:09;4.80;99.90
20732;DHT22;10527;52.124;5.196;2022-12-07T03:57:44;4.80;99.90
20732;DHT22;10527;52.124;5.196;2022-12-07T04:00:15;4.80;99.90
20732;DHT22;10527;52.124;5.196;2022-12-07T04:02:42;4.80;99.90
20732;DHT22;10527;52.124;5.196;2022-12-07T04:05:10;4.80;99.90
20732;DHT22;10527;52.124;5.196;2022-12-07T04:07:37;4.80;99.90
20732;DHT22;10527;52.124;5.196;2022-12-07T04:10:05;4.70;99.90
20732;DHT22;10527;52.124;5.196;2022-12-07T04:12:32;4.70;99.90
20732;DHT22;10527;52.124;5.196;2022-12-07T04:14:59;4.70;99.90
20732;DHT22;10527;52.124;5.196;2022-12-07T04:17:25;4.70;99.90
20732;DHT22;10527;52.124;5.196;2022-12-07T04:19:52;4.70;99.90
20732;DHT22;10527;52.124;5.196;2022-12-07T04:22:22;4.70;99.90
20732;DHT22;10527;52.124;5.196;2022-12-07T04:24:48;4.60;99.90
20732;DHT22;10527;52.124;5.196;2022-12-07T04:27:15;4.50;99.90
20732;DHT22;10527;52.124;5.196;2022-12-07T04:29:42;4.50;99.90
20732;DHT22;10527;52.124;5.196;2022-12-07T04:32:10;4.40;99.90
20732;DHT22;10527;52.124;5.196;2022-12-07T04:34:38;4.40;99.90
20732;DHT22;10527;52.124;5.196;2022-12-07T04:37:05;4.40;99.90
20732;DHT22;10527;52.124;5.196;2022-12-07T04:39:33;4.40;99.90
20732;DHT22;10527;52.124;5.196;2022-12-07T04:42:01;4.40;99.90
20732;DHT22;10527;52.124;5.196;2022-12-07T04:44:29;4.40;99.90
20732;DHT22;10527;52.124;5.196;2022-12-07T04:46:56;4.50;99.90
20732;DHT22;10527;52.124;5.196;2022-12-07T04:49:24;4.60;99.90
20732;DHT22;10527;52.124;5.196;2022-12-07T04:51:52;4.60;99.90
20732;DHT22;10527;52.124;5.196;2022-12-07T04:54:19;4.60;99.90
20732;DHT22;10527;52.124;5.196;2022-12-07T04:56:46;4.50;99.90
20732;DHT22;10527;52.124;5.196;2022-12-07T04:59:16;4.60;99.90
20732;DHT22;10527;52.124;5.196;2022-12-07T05:01:43;4.50;99.90
20732;DHT22;10527;52.124;5.196;2022-12-07T05:04:11;4.60;99.90
20732;DHT22;10527;52.124;5.196;2022-12-07T05:06:39;4.60;99.90
20732;DHT22;10527;52.124;5.196;2022-12-07T05:09:06;4.50;99.90
20732;DHT22;10527;52.124;5.196;2022-12-07T05:11:33;4.50;99.90
20732;DHT22;10527;52.124;5.196;2022-12-07T05:14:17;4.50;99.90
20732;DHT22;10527;52.124;5.196;2022-12-07T05:16:49;4.50;99.90
20732;DHT22;10527;52.124;5.196;2022-12-07T05:19:18;4.50;99.90
20732;DHT22;10527;52.124;5.196;2022-12-07T05:21:46;4.50;99.90
20732;DHT22;10527;52.124;5.196;2022-12-07T05:24:15;4.50;99.90
20732;DHT22;10527;52.124;5.196;2022-12-07T05:26:44;4.50;99.90
20732;DHT22;10527;52.124;5.196;2022-12-07T05:29:13;4.50;99.90
20732;DHT22;10527;52.124;5.196;2022-12-07T05:31:41;4.50;99.90
20732;DHT22;10527;52.124;5.196;2022-12-07T05:34:08;4.50;99.90
20732;DHT22;10527;52.124;5.196;2022-12-07T05:36:35;4.50;99.90
20732;DHT22;10527;52.124;5.196;2022-12-07T05:39:03;4.50;99.90
20732;DHT22;10527;52.124;5.196;2022-12-07T05:41:30;4.50;99.90
20732;DHT22;10527;52.124;5.196;2022-12-07T05:44:15;4.40;99.90
20732;DHT22;10527;52.124;5.196;2022-12-07T05:46:42;4.40;99.90
20732;DHT22;10527;52.124;5.196;2022-12-07T05:49:09;4.40;99.90
20732;DHT22;10527;52.124;5.196;2022-12-07T05:51:36;4.40;99.90
20732;DHT22;10527;52.124;5.196;2022-12-07T05:54:03;4.40;99.90
20732;DHT22;10527;52.124;5.196;2022-12-07T05:56:32;4.40;99.90
20732;DHT22;10527;52.124;5.196;2022-12-07T05:58:59;4.40;99.90
20732;DHT22;10527;52.124;5.196;2022-12-07T06:01:44;4.40;99.90
20732;DHT22;10527;52.124;5.196;2022-12-07T06:04:11;4.40;99.90
20732;DHT22;10527;52.124;5.196;2022-12-07T06:06:38;4.40;99.90
20732;DHT22;10527;52.124;5.196;2022-12-07T06:09:05;4.30;99.90
20732;DHT22;10527;52.124;5.196;2022-12-07T06:11:32;4.30;99.90
20732;DHT22;10527;52.124;5.196;2022-12-07T06:14:18;4.30;99.90
20732;DHT22;10527;52.124;5.196;2022-12-07T06:16:45;4.30;99.90
20732;DHT22;10527;52.124;5.196;2022-12-07T06:19:12;4.30;99.90
20732;DHT22;10527;52.124;5.196;2022-12-07T06:21:40;4.30;99.90
20732;DHT22;10527;52.124;5.196;2022-12-07T06:24:15;4.30;99.90
20732;DHT22;10527;52.124;5.196;2022-12-07T06:26:44;4.30;99.90
20732;DHT22;10527;52.124;5.196;2022-12-07T06:29:12;4.30;99.90
20732;DHT22;10527;52.124;5.196;2022-12-07T06:31:40;4.30;99.90
20732;DHT22;10527;52.124;5.196;2022-12-07T06:34:14;4.30;99.90
20732;DHT22;10527;52.124;5.196;2022-12-07T06:36:42;4.30;99.90
20732;DHT22;10527;52.124;5.196;2022-12-07T06:39:10;4.20;99.90
20732;DHT22;10527;52.124;5.196;2022-12-07T06:41:38;4.20;99.90
20732;DHT22;10527;52.124;5.196;2022-12-07T06:44:06;4.20;99.90
20732;DHT22;10527;52.124;5.196;2022-12-07T06:46:42;4.20;99.90
20732;DHT22;10527;52.124;5.196;2022-12-07T06:49:09;4.20;99.90
20732;DHT22;10527;52.124;5.196;2022-12-07T06:51:38;4.20;99.90
20732;DHT22;10527;52.124;5.196;2022-12-07T06:54:12;4.20;99.90
20732;DHT22;10527;52.124;5.196;2022-12-07T06:56:40;4.10;99.90
20732;DHT22;10527;52.124;5.196;2022-12-07T06:59:07;4.20;99.90
20732;DHT22;10527;52.124;5.196;2022-12-07T07:01:36;4.10;99.90
20732;DHT22;10527;52.124;5.196;2022-12-07T07:04:03;4.10;99.90
20732;DHT22;10527;52.124;5.196;2022-12-07T07:06:31;4.10;99.90
20732;DHT22;10527;52.124;5.196;2022-12-07T07:08:58;4.20;99.90
20732;DHT22;10527;52.124;5.196;2022-12-07T07:11:35;4.30;99.90
20732;DHT22;10527;52.124;5.196;2022-12-07T07:14:03;4.30;99.90
20732;DHT22;10527;52.124;5.196;2022-12-07T07:16:30;4.30;99.90
20732;DHT22;10527;52.124;5.196;2022-12-07T07:18:58;4.30;99.90
20732;DHT22;10527;52.124;5.196;2022-12-07T07:21:33;4.20;99.90
20732;DHT22;10527;52.124;5.196;2022-12-07T07:24:00;4.20;99.90
20732;DHT22;10527;52.124;5.196;2022-12-07T07:26:27;4.20;99.90
20732;DHT22;10527;52.124;5.196;2022-12-07T07:28:53;4.20;99.90
20732;DHT22;10527;52.124;5.196;2022-12-07T07:31:20;4.20;99.90
20732;DHT22;10527;52.124;5.196;2022-12-07T07:33:47;4.20;99.90
20732;DHT22;10527;52.124;5.196;2022-12-07T07:36:14;4.20;99.90
20732;DHT22;10527;52.124;5.196;2022-12-07T07:38:40;4.10;99.90
20732;DHT22;10527;52.124;5.196;2022-12-07T07:41:07;4.10;99.90
20732;DHT22;10527;52.124;5.196;2022-12-07T07:43:34;4.10;99.90
20732;DHT22;10527;52.124;5.196;2022-12-07T07:46:01;4.00;99.90
20732;DHT22;10527;52.124;5.196;2022-12-07T07:48:28;4.10;99.90
20732;DHT22;10527;52.124;5.196;2022-12-07T07:50:54;4.00;99.90
20732;DHT22;10527;52.124;5.196;2022-12-07T07:53:22;4.00;99.90
20732;DHT22;10527;52.124;5.196;2022-12-07T07:55:52;4.00;99.90
20732;DHT22;10527;52.124;5.196;2022-12-07T07:58:21;4.00;99.90
20732;DHT22;10527;52.124;5.196;2022-12-07T08:00:48;4.00;99.90
20732;DHT22;10527;52.124;5.196;2022-12-07T08:03:15;4.00;99.90
20732;DHT22;10527;52.124;5.196;2022-12-07T08:05:44;3.90;99.90
20732;DHT22;10527;52.124;5.196;2022-12-07T08:08:11;3.90;99.90
20732;DHT22;10527;52.124;5.196;2022-12-07T08:10:38;3.90;99.90
20732;DHT22;10527;52.124;5.196;2022-12-07T08:13:05;3.90;99.90
20732;DHT22;10527;52.124;5.196;2022-12-07T08:15:39;3.90;99.90
20732;DHT22;10527;52.124;5.196;2022-12-07T08:18:07;3.90;99.90
20732;DHT22;10527;52.124;5.196;2022-12-07T08:20:36;3.80;99.90
20732;DHT22;10527;52.124;5.196;2022-12-07T08:23:04;3.80;99.90
20732;DHT22;10527;52.124;5.196;2022-12-07T08:25:33;3.90;99.90
20732;DHT22;10527;52.124;5.196;2022-12-07T08:28:00;3.90;99.90
20732;DHT22;10527;52.124;5.196;2022-12-07T08:30:28;3.90;99.90
20732;DHT22;10527;52.124;5.196;2022-12-07T08:32:56;4.00;99.90
20732;DHT22;10527;52.124;5.196;2022-12-07T08:35:25;4.10;99.90
20732;DHT22;10527;52.124;5.196;2022-12-07T08:37:52;4.10;99.90
20732;DHT22;10527;52.124;5.196;2022-12-07T08:40:21;4.20;99.90
20732;DHT22;10527;52.124;5.196;2022-12-07T08:42:49;4.20;99.90
20732;DHT22;10527;52.124;5.196;2022-12-07T08:45:18;4.30;99.90
20732;DHT22;10527;52.124;5.196;2022-12-07T08:50:33;4.40;99.90
20732;DHT22;10527;52.124;5.196;2022-12-07T08:53:03;4.40;99.90
20732;DHT22;10527;52.124;5.196;2022-12-07T08:55:33;4.50;99.90
20732;DHT22;10527;52.124;5.196;2022-12-07T08:58:02;4.50;99.90
20732;DHT22;10527;52.124;5.196;2022-12-07T09:00:29;4.50;99.90
20732;DHT22;10527;52.124;5.196;2022-12-07T09:02:56;4.60;99.90
20732;DHT22;10527;52.124;5.196;2022-12-07T09:05:23;4.50;99.90
20732;DHT22;10527;52.124;5.196;2022-12-07T09:07:55;4.60;99.90
20732;DHT22;10527;52.124;5.196;2022-12-07T09:10:26;4.60;99.90
20732;DHT22;10527;52.124;5.196;2022-12-07T09:12:54;4.60;99.90
20732;DHT22;10527;52.124;5.196;2022-12-07T09:15:21;4.60;99.90
20732;DHT22;10527;52.124;5.196;2022-12-07T09:17:48;4.60;99.90
20732;DHT22;10527;52.124;5.196;2022-12-07T09:20:15;4.60;99.90
20732;DHT22;10527;52.124;5.196;2022-12-07T09:22:41;4.70;99.90
20732;DHT22;10527;52.124;5.196;2022-12-07T09:25:08;4.70;99.90
20732;DHT22;10527;52.124;5.196;2022-12-07T09:27:35;4.70;99.90
20732;DHT22;10527;52.124;5.196;2022-12-07T09:30:03;4.80;99.90
20732;DHT22;10527;52.124;5.196;2022-12-07T09:32:34;4.80;99.90
20732;DHT22;10527;52.124;5.196;2022-12-07T09:35:01;4.90;99.90
20732;DHT22;10527;52.124;5.196;2022-12-07T09:37:27;5.00;99.90
20732;DHT22;10527;52.124;5.196;2022-12-07T09:39:54;5.00;99.90
20732;DHT22;10527;52.124;5.196;2022-12-07T09:42:51;5.10;99.90
20732;DHT22;10527;52.124;5.196;2022-12-07T09:45:27;5.20;99.90
20732;DHT22;10527;52.124;5.196;2022-12-07T09:48:03;5.20;99.90
20732;DHT22;10527;52.124;5.196;2022-12-07T09:50:31;5.20;99.90
20732;DHT22;10527;52.124;5.196;2022-12-07T09:53:09;5.20;99.90
20732;DHT22;10527;52.124;5.196;2022-12-07T09:55:43;5.30;99.90
20732;DHT22;10527;52.124;5.196;2022-12-07T09:58:37;5.30;99.90
20732;DHT22;10527;52.124;5.196;2022-12-07T10:03:39;5.40;99.90
20732;DHT22;10527;52.124;5.196;2022-12-07T10:06:12;5.50;99.90
20732;DHT22;10527;52.124;5.196;2022-12-07T10:08:39;5.50;99.90
20732;DHT22;10527;52.124;5.196;2022-12-07T10:11:07;5.50;99.90
20732;DHT22;10527;52.124;5.196;2022-12-07T10:16:31;5.50;99.90
20732;DHT22;10527;52.124;5.196;2022-12-07T10:19:40;5.60;99.90
20732;DHT22;10527;52.124;5.196;2022-12-07T10:22:16;5.50;99.90
20732;DHT22;10527;52.124;5.196;2022-12-07T10:24:46;5.60;99.90
20732;DHT22;10527;52.124;5.196;2022-12-07T10:27:22;5.60;99.90
20732;DHT22;10527;52.124;5.196;2022-12-07T10:29:58;5.60;99.90
20732;DHT22;10527;52.124;5.196;2022-12-07T10:32:34;5.60;99.90
20732;DHT22;10527;52.124;5.196;2022-12-07T10:35:32;5.70;99.90
20732;DHT22;10527;52.124;5.196;2022-12-07T10:38:00;5.80;99.90
20732;DHT22;10527;52.124;5.196;2022-12-07T10:40:35;5.80;99.90
20732;DHT22;10527;52.124;5.196;2022-12-07T10:46:07;6.00;99.90
20732;DHT22;10527;52.124;5.196;2022-12-07T10:51:54;6.10;99.90
20732;DHT22;10527;52.124;5.196;2022-12-07T10:57:56;6.20;99.90
20732;DHT22;10527;52.124;5.196;2022-12-07T11:00:46;6.20;99.90
20732;DHT22;10527;52.124;5.196;2022-12-07T11:09:51;6.10;99.90
20732;DHT22;10527;52.124;5.196;2022-12-07T11:12:52;6.00;99.90
20732;DHT22;10527;52.124;5.196;2022-12-07T11:27:40;6.00;99.90
20732;DHT22;10527;52.124;5.196;2022-12-07T11:30:28;6.10;99.90
20732;DHT22;10527;52.124;5.196;2022-12-07T11:33:33;6.10;99.90
20732;DHT22;10527;52.124;5.196;2022-12-07T11:36:43;6.20;99.90
20732;DHT22;10527;52.124;5.196;2022-12-07T11:39:20;6.20;99.90
20732;DHT22;10527;52.124;5.196;2022-12-07T11:42:20;6.10;99.90
20732;DHT22;10527;52.124;5.196;2022-12-07T11:44:59;6.10;99.90
20732;DHT22;10527;52.124;5.196;2022-12-07T11:47:36;6.10;99.90
20732;DHT22;10527;52.124;5.196;2022-12-07T11:50:34;6.10;99.90
20732;DHT22;10527;52.124;5.196;2022-12-07T11:55:52;6.10;99.90
20732;DHT22;10527;52.124;5.196;2022-12-07T12:06:44;6.20;99.90
20732;DHT22;10527;52.124;5.196;2022-12-07T12:09:14;6.30;99.90
20732;DHT22;10527;52.124;5.196;2022-12-07T12:15:49;6.30;99.90
20732;DHT22;10527;52.124;5.196;2022-12-07T12:21:23;6.40;99.90
20732;DHT22;10527;52.124;5.196;2022-12-07T12:24:00;6.40;99.90
20732;DHT22;10527;52.124;5.196;2022-12-07T12:26:35;6.40;99.90
20732;DHT22;10527;52.124;5.196;2022-12-07T12:29:06;6.40;99.90
20732;DHT22;10527;52.124;5.196;2022-12-07T12:32:05;6.60;99.90
20732;DHT22;10527;52.124;5.196;2022-12-07T12:34:57;6.60;99.90
20732;DHT22;10527;52.124;5.196;2022-12-07T12:42:47;6.50;99.90
20732;DHT22;10527;52.124;5.196;2022-12-07T12:48:04;6.60;99.90
20732;DHT22;10527;52.124;5.196;2022-12-07T12:54:12;6.80;99.90
20732;DHT22;10527;52.124;5.196;2022-12-07T13:02:53;6.90;99.90
20732;DHT22;10527;52.124;5.196;2022-12-07T13:05:33;6.90;99.90
20732;DHT22;10527;52.124;5.196;2022-12-07T13:08:02;6.90;99.90
20732;DHT22;10527;52.124;5.196;2022-12-07T13:10:44;6.90;99.90
20732;DHT22;10527;52.124;5.196;2022-12-07T13:16:36;6.80;99.90
20732;DHT22;10527;52.124;5.196;2022-12-07T13:18:41;6.80;99.90
20732;DHT22;10527;52.124;5.196;2022-12-07T13:26:33;6.70;99.90
20732;DHT22;10527;52.124;5.196;2022-12-07T13:29:19;6.70;99.90
20732;DHT22;10527;52.124;5.196;2022-12-07T13:31:49;6.80;99.90
20732;DHT22;10527;52.124;5.196;2022-12-07T13:34:34;6.70;99.90
20732;DHT22;10527;52.124;5.196;2022-12-07T13:37:33;6.70;99.90
20732;DHT22;10527;52.124;5.196;2022-12-07T13:40:22;6.70;99.90
20732;DHT22;10527;52.124;5.196;2022-12-07T13:43:01;6.70;99.90
20732;DHT22;10527;52.124;5.196;2022-12-07T13:45:33;6.70;99.90
20732;DHT22;10527;52.124;5.196;2022-12-07T13:48:48;6.60;99.90
20732;DHT22;10527;52.124;5.196;2022-12-07T13:51:27;6.60;99.90
20732;DHT22;10527;52.124;5.196;2022-12-07T13:54:01;6.50;99.90
20732;DHT22;10527;52.124;5.196;2022-12-07T13:56:35;6.60;99.90
20732;DHT22;10527;52.124;5.196;2022-12-07T13:59:05;6.50;99.90
20732;DHT22;10527;52.124;5.196;2022-12-07T14:01:37;6.40;99.90
20732;DHT22;10527;52.124;5.196;2022-12-07T14:04:40;6.40;99.90
20732;DHT22;10527;52.124;5.196;2022-12-07T14:07:26;6.40;99.90
20732;DHT22;10527;52.124;5.196;2022-12-07T14:10:04;6.40;99.90
20732;DHT22;10527;52.124;5.196;2022-12-07T14:12:36;6.40;99.90
20732;DHT22;10527;52.124;5.196;2022-12-07T14:15:03;6.40;99.90
20732;DHT22;10527;52.124;5.196;2022-12-07T14:17:32;6.40;99.90
20732;DHT22;10527;52.124;5.196;2022-12-07T14:20:01;6.40;99.90
20732;DHT22;10527;52.124;5.196;2022-12-07T14:22:55;6.30;99.90
20732;DHT22;10527;52.124;5.196;2022-12-07T14:25:24;6.40;99.90
20732;DHT22;10527;52.124;5.196;2022-12-07T14:30:27;6.30;99.90
20732;DHT22;10527;52.124;5.196;2022-12-07T14:33:01;6.30;99.90
20732;DHT22;10527;52.124;5.196;2022-12-07T14:35:31;6.30;99.90
20732;DHT22;10527;52.124;5.196;2022-12-07T14:37:58;6.30;99.90
20732;DHT22;10527;52.124;5.196;2022-12-07T14:40:27;6.30;99.90
20732;DHT22;10527;52.124;5.196;2022-12-07T14:43:05;6.30;99.90
20732;DHT22;10527;52.124;5.196;2022-12-07T14:45:38;6.30;99.90
20732;DHT22;10527;52.124;5.196;2022-12-07T14:48:11;6.30;99.90
20732;DHT22;10527;52.124;5.196;2022-12-07T14:50:59;6.30;99.90
20732;DHT22;10527;52.124;5.196;2022-12-07T14:53:48;6.30;99.90
20732;DHT22;10527;52.124;5.196;2022-12-07T14:56:23;6.30;99.90
20732;DHT22;10527;52.124;5.196;2022-12-07T14:58:54;6.40;99.90
20732;DHT22;10527;52.124;5.196;2022-12-07T15:01:27;6.40;99.90
20732;DHT22;10527;52.124;5.196;2022-12-07T15:03:53;6.30;99.90
20732;DHT22;10527;52.124;5.196;2022-12-07T15:06:20;6.30;99.90
20732;DHT22;10527;52.124;5.196;2022-12-07T15:08:47;6.30;99.90
20732;DHT22;10527;52.124;5.196;2022-12-07T15:11:17;6.30;99.90
20732;DHT22;10527;52.124;5.196;2022-12-07T15:13:44;6.30;99.90
20732;DHT22;10527;52.124;5.196;2022-12-07T15:16:29;6.20;99.90
20732;DHT22;10527;52.124;5.196;2022-12-07T15:19:22;6.20;99.90
20732;DHT22;10527;52.124;5.196;2022-12-07T15:21:56;6.20;99.90
20732;DHT22;10527;52.124;5.196;2022-12-07T15:24:26;6.10;99.90
20732;DHT22;10527;52.124;5.196;2022-12-07T15:26:53;6.10;99.90
20732;DHT22;10527;52.124;5.196;2022-12-07T15:29:20;6.10;99.90
20732;DHT22;10527;52.124;5.196;2022-12-07T15:31:52;6.10;99.90
20732;DHT22;10527;52.124;5.196;2022-12-07T15:34:27;6.00;99.90
20732;DHT22;10527;52.124;5.196;2022-12-07T15:37:01;6.00;99.90
20732;DHT22;10527;52.124;5.196;2022-12-07T15:39:28;6.00;99.90
20732;DHT22;10527;52.124;5.196;2022-12-07T15:41:55;6.00;99.90
20732;DHT22;10527;52.124;5.196;2022-12-07T15:44:22;6.00;99.90
20732;DHT22;10527;52.124;5.196;2022-12-07T15:47:07;5.90;99.90
20732;DHT22;10527;52.124;5.196;2022-12-07T15:49:34;5.90;99.90
20732;DHT22;10527;52.124;5.196;2022-12-07T15:52:03;5.90;99.90
20732;DHT22;10527;52.124;5.196;2022-12-07T15:54:30;5.80;99.90
20732;DHT22;10527;52.124;5.196;2022-12-07T15:56:58;5.80;99.90
20732;DHT22;10527;52.124;5.196;2022-12-07T15:59:26;5.80;99.90
20732;DHT22;10527;52.124;5.196;2022-12-07T16:01:55;5.80;99.90
20732;DHT22;10527;52.124;5.196;2022-12-07T16:04:22;5.80;99.90
20732;DHT22;10527;52.124;5.196;2022-12-07T16:06:51;5.80;99.90
20732;DHT22;10527;52.124;5.196;2022-12-07T16:09:18;5.80;99.90
20732;DHT22;10527;52.124;5.196;2022-12-07T16:11:47;5.80;99.90
20732;DHT22;10527;52.124;5.196;2022-12-07T16:14:14;5.70;99.90
20732;DHT22;10527;52.124;5.196;2022-12-07T16:16:40;5.70;99.90
20732;DHT22;10527;52.124;5.196;2022-12-07T16:19:08;5.70;99.90
20732;DHT22;10527;52.124;5.196;2022-12-07T16:21:35;5.70;99.90
20732;DHT22;10527;52.124;5.196;2022-12-07T16:24:02;5.80;99.90
20732;DHT22;10527;52.124;5.196;2022-12-07T16:26:32;5.70;99.90
20732;DHT22;10527;52.124;5.196;2022-12-07T16:29:01;5.80;99.90
20732;DHT22;10527;52.124;5.196;2022-12-07T16:31:32;5.70;99.90
20732;DHT22;10527;52.124;5.196;2022-12-07T16:34:06;5.70;99.90
20732;DHT22;10527;52.124;5.196;2022-12-07T16:36:33;5.70;99.90
20732;DHT22;10527;52.124;5.196;2022-12-07T16:39:20;5.70;99.90
20732;DHT22;10527;52.124;5.196;2022-12-07T16:41:47;5.70;99.90
20732;DHT22;10527;52.124;5.196;2022-12-07T16:44:14;5.70;99.90
20732;DHT22;10527;52.124;5.196;2022-12-07T16:46:41;5.70;99.90
20732;DHT22;10527;52.124;5.196;2022-12-07T16:49:13;5.70;99.90
20732;DHT22;10527;52.124;5.196;2022-12-07T16:51:41;5.70;99.90
20732;DHT22;10527;52.124;5.196;2022-12-07T16:54:28;5.70;99.90
20732;DHT22;10527;52.124;5.196;2022-12-07T16:56:58;5.60;99.90
20732;DHT22;10527;52.124;5.196;2022-12-07T16:59:25;5.60;99.90
20732;DHT22;10527;52.124;5.196;2022-12-07T17:01:52;5.70;99.90
20732;DHT22;10527;52.124;5.196;2022-12-07T17:04:19;5.60;99.90
20732;DHT22;10527;52.124;5.196;2022-12-07T17:06:46;5.60;99.90
20732;DHT22;10527;52.124;5.196;2022-12-07T17:09:16;5.60;99.90
20732;DHT22;10527;52.124;5.196;2022-12-07T17:11:47;5.60;99.90
20732;DHT22;10527;52.124;5.196;2022-12-07T17:14:14;5.60;99.90
20732;DHT22;10527;52.124;5.196;2022-12-07T17:17:00;5.60;99.90
20732;DHT22;10527;52.124;5.196;2022-12-07T17:19:27;5.60;99.90
20732;DHT22;10527;52.124;5.196;2022-12-07T17:21:54;5.60;99.90
20732;DHT22;10527;52.124;5.196;2022-12-07T17:24:22;5.60;99.90
20732;DHT22;10527;52.124;5.196;2022-12-07T17:26:49;5.60;99.90
20732;DHT22;10527;52.124;5.196;2022-12-07T17:29:17;5.60;99.90
20732;DHT22;10527;52.124;5.196;2022-12-07T17:31:46;5.60;99.90
20732;DHT22;10527;52.124;5.196;2022-12-07T17:34:18;5.60;99.90
20732;DHT22;10527;52.124;5.196;2022-12-07T17:36:45;5.60;99.90
20732;DHT22;10527;52.124;5.196;2022-12-07T17:39:15;5.60;99.90
20732;DHT22;10527;52.124;5.196;2022-12-07T17:41:43;5.70;99.90
20732;DHT22;10527;52.124;5.196;2022-12-07T17:44:29;5.60;99.90
20732;DHT22;10527;52.124;5.196;2022-12-07T17:46:57;5.60;99.90
20732;DHT22;10527;52.124;5.196;2022-12-07T17:49:25;5.60;99.90
20732;DHT22;10527;52.124;5.196;2022-12-07T17:51:53;5.60;99.90
20732;DHT22;10527;52.124;5.196;2022-12-07T17:54:38;5.50;99.90
20732;DHT22;10527;52.124;5.196;2022-12-07T17:57:05;5.50;99.90
20732;DHT22;10527;52.124;5.196;2022-12-07T17:59:32;5.50;99.90
20732;DHT22;10527;52.124;5.196;2022-12-07T18:01:59;5.60;99.90